sensor_id;sensor_type;location;lat;lon;timestamp;P1;durP1;ratioP1;P2;durP2;ratioP2
12921;SDS011;6528;48.086;16.282;2022-10-22T00:02:26;4.27;;;3.90;;
12921;SDS011;6528;48.086;16.282;2022-10-22T00:04:53;4.30;;;3.90;;
12921;SDS011;6528;48.086;16.282;2022-10-22T00:07:22;4.93;;;4.53;;
12921;SDS011;6528;48.086;16.282;2022-10-22T00:09:49;4.67;;;4.27;;
12921;SDS011;6528;48.086;16.282;2022-10-22T00:12:16;5.47;;;4.97;;
12921;SDS011;6528;48.086;16.282;2022-10-22T00:14:43;4.03;;;3.73;;
12921;SDS011;6528;48.086;16.282;2022-10-22T00:17:09;4.90;;;4.50;;
12921;SDS011;6528;48.086;16.282;2022-10-22T00:19:38;4.30;;;3.90;;
12921;SDS011;6528;48.086;16.282;2022-10-22T00:22:05;4.47;;;4.07;;
12921;SDS011;6528;48.086;16.282;2022-10-22T00:24:33;3.87;;;3.67;;
12921;SDS011;6528;48.086;16.282;2022-10-22T00:27:01;4.33;;;4.03;;
12921;SDS011;6528;48.086;16.282;2022-10-22T00:29:28;4.50;;;4.20;;
12921;SDS011;6528;48.086;16.282;2022-10-22T00:31:55;4.70;;;4.30;;
12921;SDS011;6528;48.086;16.282;2022-10-22T00:34:22;4.20;;;3.77;;
12921;SDS011;6528;48.086;16.282;2022-10-22T00:36:50;5.30;;;4.70;;
12921;SDS011;6528;48.086;16.282;2022-10-22T00:39:18;4.77;;;4.47;;
12921;SDS011;6528;48.086;16.282;2022-10-22T00:41:47;4.20;;;3.90;;
12921;SDS011;6528;48.086;16.282;2022-10-22T00:47:19;3.93;;;3.43;;
12921;SDS011;6528;48.086;16.282;2022-10-22T00:49:49;3.90;;;3.60;;
12921;SDS011;6528;48.086;16.282;2022-10-22T00:52:19;4.13;;;3.70;;
12921;SDS011;6528;48.086;16.282;2022-10-22T00:54:47;5.93;;;4.00;;
12921;SDS011;6528;48.086;16.282;2022-10-22T00:57:15;4.20;;;3.90;;
12921;SDS011;6528;48.086;16.282;2022-10-22T00:59:43;4.70;;;4.30;;
12921;SDS011;6528;48.086;16.282;2022-10-22T01:02:10;4.07;;;3.77;;
12921;SDS011;6528;48.086;16.282;2022-10-22T01:04:36;3.80;;;3.60;;
12921;SDS011;6528;48.086;16.282;2022-10-22T01:07:03;4.57;;;4.17;;
12921;SDS011;6528;48.086;16.282;2022-10-22T01:09:33;4.73;;;4.33;;
12921;SDS011;6528;48.086;16.282;2022-10-22T01:12:09;4.17;;;3.87;;
12921;SDS011;6528;48.086;16.282;2022-10-22T01:26:15;3.87;;;3.57;;
12921;SDS011;6528;48.086;16.282;2022-10-22T01:31:34;3.60;;;3.30;;
12921;SDS011;6528;48.086;16.282;2022-10-22T01:34:05;3.97;;;3.67;;
12921;SDS011;6528;48.086;16.282;2022-10-22T01:36:33;4.40;;;4.10;;
12921;SDS011;6528;48.086;16.282;2022-10-22T01:39:02;3.77;;;3.50;;
12921;SDS011;6528;48.086;16.282;2022-10-22T01:41:30;3.93;;;3.53;;
12921;SDS011;6528;48.086;16.282;2022-10-22T01:43:57;4.17;;;3.83;;
12921;SDS011;6528;48.086;16.282;2022-10-22T01:46:24;4.30;;;4.00;;
12921;SDS011;6528;48.086;16.282;2022-10-22T02:05:31;3.60;;;3.30;;
12921;SDS011;6528;48.086;16.282;2022-10-22T02:08:09;3.70;;;3.40;;
12921;SDS011;6528;48.086;16.282;2022-10-22T02:10:45;3.77;;;3.47;;
12921;SDS011;6528;48.086;16.282;2022-10-22T02:13:33;3.50;;;3.20;;
12921;SDS011;6528;48.086;16.282;2022-10-22T02:16:05;4.30;;;3.90;;
12921;SDS011;6528;48.086;16.282;2022-10-22T02:18:34;3.53;;;3.23;;
12921;SDS011;6528;48.086;16.282;2022-10-22T02:21:04;3.37;;;3.07;;
12921;SDS011;6528;48.086;16.282;2022-10-22T02:23:37;4.00;;;3.70;;
12921;SDS011;6528;48.086;16.282;2022-10-22T02:26:13;3.90;;;3.60;;
12921;SDS011;6528;48.086;16.282;2022-10-22T02:31:25;4.23;;;3.77;;
12921;SDS011;6528;48.086;16.282;2022-10-22T02:33:55;3.70;;;3.40;;
12921;SDS011;6528;48.086;16.282;2022-10-22T02:36:26;4.30;;;4.07;;
12921;SDS011;6528;48.086;16.282;2022-10-22T02:38:53;3.33;;;3.13;;
12921;SDS011;6528;48.086;16.282;2022-10-22T02:41:21;3.93;;;3.53;;
12921;SDS011;6528;48.086;16.282;2022-10-22T02:43:50;3.50;;;3.23;;
12921;SDS011;6528;48.086;16.282;2022-10-22T02:46:20;3.23;;;3.03;;
12921;SDS011;6528;48.086;16.282;2022-10-22T02:48:47;4.00;;;3.60;;
12921;SDS011;6528;48.086;16.282;2022-10-22T02:51:14;3.67;;;3.40;;
12921;SDS011;6528;48.086;16.282;2022-10-22T02:53:40;3.53;;;3.23;;
12921;SDS011;6528;48.086;16.282;2022-10-22T02:56:07;3.50;;;3.20;;
12921;SDS011;6528;48.086;16.282;2022-10-22T02:58:34;3.80;;;3.50;;
12921;SDS011;6528;48.086;16.282;2022-10-22T03:01:01;3.23;;;3.03;;
12921;SDS011;6528;48.086;16.282;2022-10-22T03:03:28;3.90;;;3.63;;
12921;SDS011;6528;48.086;16.282;2022-10-22T03:05:55;3.47;;;3.27;;
12921;SDS011;6528;48.086;16.282;2022-10-22T03:08:21;3.10;;;2.90;;
12921;SDS011;6528;48.086;16.282;2022-10-22T03:10:48;3.93;;;3.63;;
12921;SDS011;6528;48.086;16.282;2022-10-22T03:13:15;3.90;;;3.67;;
12921;SDS011;6528;48.086;16.282;2022-10-22T03:15:41;3.73;;;3.43;;
12921;SDS011;6528;48.086;16.282;2022-10-22T03:18:08;3.40;;;3.10;;
12921;SDS011;6528;48.086;16.282;2022-10-22T03:20:35;3.80;;;3.50;;
12921;SDS011;6528;48.086;16.282;2022-10-22T03:23:02;3.60;;;3.30;;
12921;SDS011;6528;48.086;16.282;2022-10-22T03:29:10;3.63;;;3.10;;
12921;SDS011;6528;48.086;16.282;2022-10-22T03:31:39;3.50;;;3.20;;
12921;SDS011;6528;48.086;16.282;2022-10-22T03:34:06;4.20;;;3.90;;
12921;SDS011;6528;48.086;16.282;2022-10-22T03:36:34;8.13;;;3.30;;
12921;SDS011;6528;48.086;16.282;2022-10-22T03:39:00;4.33;;;3.30;;
12921;SDS011;6528;48.086;16.282;2022-10-22T03:41:27;4.13;;;3.73;;
12921;SDS011;6528;48.086;16.282;2022-10-22T03:43:54;3.40;;;3.10;;
12921;SDS011;6528;48.086;16.282;2022-10-22T03:46:22;4.10;;;3.70;;
12921;SDS011;6528;48.086;16.282;2022-10-22T03:48:49;3.50;;;3.20;;
12921;SDS011;6528;48.086;16.282;2022-10-22T03:51:16;3.90;;;3.60;;
12921;SDS011;6528;48.086;16.282;2022-10-22T03:53:42;3.90;;;3.60;;
12921;SDS011;6528;48.086;16.282;2022-10-22T03:56:09;3.93;;;3.63;;
12921;SDS011;6528;48.086;16.282;2022-10-22T03:58:37;4.23;;;3.80;;
12921;SDS011;6528;48.086;16.282;2022-10-22T04:01:09;4.57;;;4.13;;
12921;SDS011;6528;48.086;16.282;2022-10-22T04:03:38;3.77;;;3.50;;
12921;SDS011;6528;48.086;16.282;2022-10-22T04:06:09;3.50;;;3.20;;
12921;SDS011;6528;48.086;16.282;2022-10-22T04:08:38;3.23;;;3.03;;
12921;SDS011;6528;48.086;16.282;2022-10-22T04:11:06;4.20;;;3.70;;
12921;SDS011;6528;48.086;16.282;2022-10-22T04:13:34;3.30;;;3.10;;
12921;SDS011;6528;48.086;16.282;2022-10-22T04:16:14;3.50;;;3.30;;
12921;SDS011;6528;48.086;16.282;2022-10-22T04:18:43;8.80;;;3.53;;
12921;SDS011;6528;48.086;16.282;2022-10-22T04:21:11;3.63;;;3.33;;
12921;SDS011;6528;48.086;16.282;2022-10-22T04:23:43;3.93;;;3.60;;
12921;SDS011;6528;48.086;16.282;2022-10-22T04:26:14;3.17;;;2.97;;
12921;SDS011;6528;48.086;16.282;2022-10-22T04:28:43;3.60;;;3.27;;
12921;SDS011;6528;48.086;16.282;2022-10-22T04:31:12;4.13;;;3.83;;
12921;SDS011;6528;48.086;16.282;2022-10-22T04:33:40;3.80;;;3.60;;
12921;SDS011;6528;48.086;16.282;2022-10-22T04:36:08;3.70;;;3.40;;
12921;SDS011;6528;48.086;16.282;2022-10-22T04:38:37;3.60;;;3.30;;
12921;SDS011;6528;48.086;16.282;2022-10-22T04:41:08;3.93;;;3.63;;
12921;SDS011;6528;48.086;16.282;2022-10-22T04:43:40;3.90;;;3.60;;
12921;SDS011;6528;48.086;16.282;2022-10-22T04:46:08;3.57;;;3.30;;
12921;SDS011;6528;48.086;16.282;2022-10-22T04:48:36;3.80;;;3.60;;
12921;SDS011;6528;48.086;16.282;2022-10-22T04:51:05;3.40;;;3.20;;
12921;SDS011;6528;48.086;16.282;2022-10-22T04:53:34;4.33;;;3.97;;
12921;SDS011;6528;48.086;16.282;2022-10-22T04:58:34;3.93;;;3.60;;
12921;SDS011;6528;48.086;16.282;2022-10-22T05:01:07;3.63;;;3.43;;
12921;SDS011;6528;48.086;16.282;2022-10-22T05:03:39;3.50;;;3.30;;
12921;SDS011;6528;48.086;16.282;2022-10-22T05:06:06;4.03;;;3.63;;
12921;SDS011;6528;48.086;16.282;2022-10-22T05:08:34;4.40;;;4.10;;
12921;SDS011;6528;48.086;16.282;2022-10-22T05:11:08;3.77;;;3.47;;
12921;SDS011;6528;48.086;16.282;2022-10-22T05:13:36;4.67;;;4.27;;
12921;SDS011;6528;48.086;16.282;2022-10-22T05:16:03;4.30;;;4.00;;
12921;SDS011;6528;48.086;16.282;2022-10-22T05:18:32;4.80;;;4.40;;
12921;SDS011;6528;48.086;16.282;2022-10-22T05:21:02;4.80;;;4.40;;
12921;SDS011;6528;48.086;16.282;2022-10-22T05:23:29;4.80;;;4.30;;
12921;SDS011;6528;48.086;16.282;2022-10-22T05:26:00;4.50;;;4.10;;
12921;SDS011;6528;48.086;16.282;2022-10-22T05:28:27;5.73;;;3.90;;
12921;SDS011;6528;48.086;16.282;2022-10-22T05:30:55;4.97;;;4.47;;
12921;SDS011;6528;48.086;16.282;2022-10-22T05:33:24;5.07;;;4.60;;
12921;SDS011;6528;48.086;16.282;2022-10-22T05:35:51;4.63;;;4.33;;
12921;SDS011;6528;48.086;16.282;2022-10-22T05:38:18;3.90;;;3.50;;
12921;SDS011;6528;48.086;16.282;2022-10-22T05:40:45;5.10;;;4.70;;
12921;SDS011;6528;48.086;16.282;2022-10-22T05:43:12;5.60;;;4.50;;
12921;SDS011;6528;48.086;16.282;2022-10-22T05:45:39;5.13;;;4.73;;
12921;SDS011;6528;48.086;16.282;2022-10-22T05:48:07;5.47;;;5.00;;
12921;SDS011;6528;48.086;16.282;2022-10-22T05:50:35;5.60;;;5.00;;
12921;SDS011;6528;48.086;16.282;2022-10-22T05:53:03;6.37;;;5.37;;
12921;SDS011;6528;48.086;16.282;2022-10-22T05:55:34;5.73;;;5.23;;
12921;SDS011;6528;48.086;16.282;2022-10-22T05:58:02;6.60;;;5.93;;
12921;SDS011;6528;48.086;16.282;2022-10-22T06:00:29;110.23;;;38.17;;
12921;SDS011;6528;48.086;16.282;2022-10-22T06:02:56;73.53;;;36.77;;
12921;SDS011;6528;48.086;16.282;2022-10-22T06:05:23;66.90;;;32.90;;
12921;SDS011;6528;48.086;16.282;2022-10-22T06:07:50;67.67;;;31.97;;
12921;SDS011;6528;48.086;16.282;2022-10-22T06:10:17;60.20;;;30.40;;
12921;SDS011;6528;48.086;16.282;2022-10-22T06:12:46;55.77;;;30.40;;
12921;SDS011;6528;48.086;16.282;2022-10-22T06:15:14;59.70;;;29.23;;
12921;SDS011;6528;48.086;16.282;2022-10-22T06:17:45;60.07;;;28.87;;
12921;SDS011;6528;48.086;16.282;2022-10-22T06:20:13;58.97;;;28.20;;
12921;SDS011;6528;48.086;16.282;2022-10-22T06:22:40;48.00;;;26.07;;
12921;SDS011;6528;48.086;16.282;2022-10-22T06:25:07;59.83;;;26.10;;
12921;SDS011;6528;48.086;16.282;2022-10-22T06:27:34;55.40;;;24.43;;
12921;SDS011;6528;48.086;16.282;2022-10-22T06:30:01;36.93;;;19.83;;
12921;SDS011;6528;48.086;16.282;2022-10-22T06:32:29;38.30;;;20.07;;
12921;SDS011;6528;48.086;16.282;2022-10-22T06:34:55;30.70;;;19.07;;
12921;SDS011;6528;48.086;16.282;2022-10-22T06:37:22;33.67;;;18.37;;
12921;SDS011;6528;48.086;16.282;2022-10-22T06:39:49;34.60;;;19.43;;
12921;SDS011;6528;48.086;16.282;2022-10-22T06:42:15;33.80;;;19.70;;
12921;SDS011;6528;48.086;16.282;2022-10-22T06:44:42;27.17;;;17.70;;
12921;SDS011;6528;48.086;16.282;2022-10-22T06:47:09;21.97;;;16.57;;
12921;SDS011;6528;48.086;16.282;2022-10-22T06:49:35;17.20;;;13.70;;
12921;SDS011;6528;48.086;16.282;2022-10-22T06:52:02;18.17;;;13.90;;
12921;SDS011;6528;48.086;16.282;2022-10-22T06:54:29;16.77;;;12.53;;
12921;SDS011;6528;48.086;16.282;2022-10-22T06:56:55;17.33;;;13.20;;
12921;SDS011;6528;48.086;16.282;2022-10-22T06:59:22;19.27;;;12.57;;
12921;SDS011;6528;48.086;16.282;2022-10-22T07:01:49;14.70;;;12.40;;
12921;SDS011;6528;48.086;16.282;2022-10-22T07:04:15;18.57;;;13.37;;
12921;SDS011;6528;48.086;16.282;2022-10-22T07:06:42;14.40;;;11.70;;
12921;SDS011;6528;48.086;16.282;2022-10-22T07:09:09;14.50;;;12.57;;
12921;SDS011;6528;48.086;16.282;2022-10-22T07:11:37;17.30;;;11.60;;
12921;SDS011;6528;48.086;16.282;2022-10-22T07:14:09;13.17;;;11.43;;
12921;SDS011;6528;48.086;16.282;2022-10-22T07:16:36;16.57;;;11.67;;
12921;SDS011;6528;48.086;16.282;2022-10-22T07:19:04;16.07;;;10.87;;
12921;SDS011;6528;48.086;16.282;2022-10-22T07:21:30;19.23;;;11.83;;
12921;SDS011;6528;48.086;16.282;2022-10-22T07:23:58;14.30;;;11.00;;
12921;SDS011;6528;48.086;16.282;2022-10-22T07:26:25;15.70;;;10.60;;
12921;SDS011;6528;48.086;16.282;2022-10-22T07:28:55;13.90;;;11.53;;
12921;SDS011;6528;48.086;16.282;2022-10-22T07:31:22;15.13;;;10.67;;
12921;SDS011;6528;48.086;16.282;2022-10-22T07:33:49;11.53;;;9.53;;
12921;SDS011;6528;48.086;16.282;2022-10-22T07:36:16;13.83;;;9.00;;
12921;SDS011;6528;48.086;16.282;2022-10-22T07:38:44;10.97;;;9.50;;
12921;SDS011;6528;48.086;16.282;2022-10-22T07:41:18;12.70;;;10.47;;
12921;SDS011;6528;48.086;16.282;2022-10-22T07:43:44;11.10;;;9.43;;
12921;SDS011;6528;48.086;16.282;2022-10-22T07:46:12;11.97;;;9.73;;
12921;SDS011;6528;48.086;16.282;2022-10-22T07:48:38;11.60;;;8.93;;
12921;SDS011;6528;48.086;16.282;2022-10-22T07:51:05;10.93;;;9.13;;
12921;SDS011;6528;48.086;16.282;2022-10-22T07:53:32;9.40;;;8.40;;
12921;SDS011;6528;48.086;16.282;2022-10-22T07:55:59;14.73;;;9.67;;
12921;SDS011;6528;48.086;16.282;2022-10-22T07:58:26;11.97;;;9.30;;
12921;SDS011;6528;48.086;16.282;2022-10-22T08:00:56;10.17;;;8.33;;
12921;SDS011;6528;48.086;16.282;2022-10-22T08:03:26;10.40;;;9.10;;
12921;SDS011;6528;48.086;16.282;2022-10-22T08:05:53;11.10;;;8.60;;
12921;SDS011;6528;48.086;16.282;2022-10-22T08:08:20;10.50;;;7.93;;
12921;SDS011;6528;48.086;16.282;2022-10-22T08:10:52;8.97;;;7.53;;
12921;SDS011;6528;48.086;16.282;2022-10-22T08:13:19;8.60;;;7.83;;
12921;SDS011;6528;48.086;16.282;2022-10-22T08:15:45;11.77;;;8.13;;
12921;SDS011;6528;48.086;16.282;2022-10-22T08:18:14;9.53;;;8.43;;
12921;SDS011;6528;48.086;16.282;2022-10-22T08:20:41;9.20;;;8.00;;
12921;SDS011;6528;48.086;16.282;2022-10-22T08:23:08;8.60;;;7.63;;
12921;SDS011;6528;48.086;16.282;2022-10-22T08:25:35;13.17;;;8.40;;
12921;SDS011;6528;48.086;16.282;2022-10-22T08:28:01;15.73;;;8.87;;
12921;SDS011;6528;48.086;16.282;2022-10-22T08:30:28;14.60;;;7.50;;
12921;SDS011;6528;48.086;16.282;2022-10-22T08:32:55;12.60;;;7.83;;
12921;SDS011;6528;48.086;16.282;2022-10-22T08:35:22;11.87;;;9.07;;
12921;SDS011;6528;48.086;16.282;2022-10-22T08:37:49;14.13;;;7.70;;
12921;SDS011;6528;48.086;16.282;2022-10-22T08:40:27;11.87;;;7.80;;
12921;SDS011;6528;48.086;16.282;2022-10-22T08:46:04;9.90;;;7.70;;
12921;SDS011;6528;48.086;16.282;2022-10-22T08:48:42;10.37;;;7.37;;
12921;SDS011;6528;48.086;16.282;2022-10-22T08:51:23;11.23;;;7.40;;
12921;SDS011;6528;48.086;16.282;2022-10-22T08:56:38;10.70;;;7.60;;
12921;SDS011;6528;48.086;16.282;2022-10-22T08:59:11;12.03;;;7.47;;
12921;SDS011;6528;48.086;16.282;2022-10-22T09:01:45;9.50;;;7.57;;
12921;SDS011;6528;48.086;16.282;2022-10-22T09:04:18;9.73;;;7.50;;
12921;SDS011;6528;48.086;16.282;2022-10-22T09:06:54;10.10;;;6.63;;
12921;SDS011;6528;48.086;16.282;2022-10-22T09:09:25;13.23;;;8.13;;
12921;SDS011;6528;48.086;16.282;2022-10-22T09:11:56;9.17;;;6.77;;
12921;SDS011;6528;48.086;16.282;2022-10-22T09:14:25;7.43;;;6.53;;
12921;SDS011;6528;48.086;16.282;2022-10-22T09:25:24;7.30;;;6.53;;
12921;SDS011;6528;48.086;16.282;2022-10-22T09:27:52;7.17;;;6.47;;
12921;SDS011;6528;48.086;16.282;2022-10-22T09:30:25;9.60;;;7.27;;
12921;SDS011;6528;48.086;16.282;2022-10-22T09:32:54;7.30;;;6.70;;
12921;SDS011;6528;48.086;16.282;2022-10-22T09:35:27;8.13;;;7.13;;
12921;SDS011;6528;48.086;16.282;2022-10-22T09:37:58;8.37;;;5.93;;
12921;SDS011;6528;48.086;16.282;2022-10-22T09:40:41;7.70;;;6.70;;
12921;SDS011;6528;48.086;16.282;2022-10-22T09:43:11;7.20;;;5.87;;
12921;SDS011;6528;48.086;16.282;2022-10-22T09:45:39;7.97;;;5.97;;
12921;SDS011;6528;48.086;16.282;2022-10-22T09:48:27;6.73;;;6.13;;
12921;SDS011;6528;48.086;16.282;2022-10-22T09:50:58;6.90;;;6.30;;
12921;SDS011;6528;48.086;16.282;2022-10-22T09:53:41;6.60;;;6.00;;
12921;SDS011;6528;48.086;16.282;2022-10-22T09:59:13;7.53;;;6.30;;
12921;SDS011;6528;48.086;16.282;2022-10-22T10:01:41;6.20;;;5.27;;
12921;SDS011;6528;48.086;16.282;2022-10-22T10:04:10;6.40;;;5.90;;
12921;SDS011;6528;48.086;16.282;2022-10-22T10:06:42;8.83;;;5.77;;
12921;SDS011;6528;48.086;16.282;2022-10-22T10:09:20;6.37;;;5.27;;
12921;SDS011;6528;48.086;16.282;2022-10-22T10:12:02;10.97;;;6.47;;
12921;SDS011;6528;48.086;16.282;2022-10-22T10:14:38;7.00;;;6.40;;
12921;SDS011;6528;48.086;16.282;2022-10-22T10:30:36;6.33;;;5.73;;
12921;SDS011;6528;48.086;16.282;2022-10-22T10:38:56;6.27;;;5.70;;
12921;SDS011;6528;48.086;16.282;2022-10-22T10:44:25;6.60;;;5.50;;
12921;SDS011;6528;48.086;16.282;2022-10-22T10:49:51;7.10;;;5.77;;
12921;SDS011;6528;48.086;16.282;2022-10-22T10:52:27;6.80;;;5.77;;
12921;SDS011;6528;48.086;16.282;2022-10-22T11:00:31;6.67;;;5.90;;
12921;SDS011;6528;48.086;16.282;2022-10-22T11:05:52;6.47;;;5.90;;
12921;SDS011;6528;48.086;16.282;2022-10-22T11:13:29;5.80;;;5.17;;
12921;SDS011;6528;48.086;16.282;2022-10-22T11:16:00;5.60;;;5.10;;
12921;SDS011;6528;48.086;16.282;2022-10-22T11:18:39;6.37;;;5.77;;
12921;SDS011;6528;48.086;16.282;2022-10-22T11:24:00;5.93;;;5.43;;
12921;SDS011;6528;48.086;16.282;2022-10-22T11:29:10;5.90;;;5.40;;
12921;SDS011;6528;48.086;16.282;2022-10-22T11:31:42;6.37;;;5.80;;
12921;SDS011;6528;48.086;16.282;2022-10-22T11:34:33;5.00;;;4.60;;
12921;SDS011;6528;48.086;16.282;2022-10-22T11:37:09;5.63;;;5.10;;
12921;SDS011;6528;48.086;16.282;2022-10-22T11:42:09;4.93;;;4.63;;
12921;SDS011;6528;48.086;16.282;2022-10-22T11:58:27;5.10;;;4.70;;
12921;SDS011;6528;48.086;16.282;2022-10-22T12:01:15;6.80;;;4.80;;
12921;SDS011;6528;48.086;16.282;2022-10-22T12:03:48;5.40;;;4.90;;
12921;SDS011;6528;48.086;16.282;2022-10-22T12:06:19;4.60;;;4.20;;
12921;SDS011;6528;48.086;16.282;2022-10-22T12:16:58;5.70;;;5.30;;
12921;SDS011;6528;48.086;16.282;2022-10-22T12:19:42;4.73;;;4.40;;
12921;SDS011;6528;48.086;16.282;2022-10-22T12:22:16;4.30;;;3.97;;
12921;SDS011;6528;48.086;16.282;2022-10-22T12:24:45;4.53;;;4.13;;
12921;SDS011;6528;48.086;16.282;2022-10-22T12:27:15;4.70;;;4.40;;
12921;SDS011;6528;48.086;16.282;2022-10-22T12:29:54;4.30;;;4.00;;
12921;SDS011;6528;48.086;16.282;2022-10-22T12:32:23;5.13;;;4.57;;
12921;SDS011;6528;48.086;16.282;2022-10-22T12:35:16;5.67;;;4.20;;
12921;SDS011;6528;48.086;16.282;2022-10-22T12:37:47;4.70;;;4.30;;
12921;SDS011;6528;48.086;16.282;2022-10-22T12:42:51;4.60;;;4.30;;
12921;SDS011;6528;48.086;16.282;2022-10-22T12:45:29;5.20;;;4.70;;
12921;SDS011;6528;48.086;16.282;2022-10-22T12:47:58;5.57;;;5.00;;
12921;SDS011;6528;48.086;16.282;2022-10-22T12:50:32;6.27;;;5.07;;
12921;SDS011;6528;48.086;16.282;2022-10-22T12:53:23;5.30;;;4.67;;
12921;SDS011;6528;48.086;16.282;2022-10-22T12:56:12;4.97;;;4.57;;
12921;SDS011;6528;48.086;16.282;2022-10-22T13:01:25;4.90;;;4.50;;
12921;SDS011;6528;48.086;16.282;2022-10-22T13:04:04;5.60;;;5.10;;
12921;SDS011;6528;48.086;16.282;2022-10-22T13:06:41;4.57;;;4.17;;
12921;SDS011;6528;48.086;16.282;2022-10-22T13:09:20;8.40;;;4.80;;
12921;SDS011;6528;48.086;16.282;2022-10-22T13:11:54;4.90;;;4.50;;
12921;SDS011;6528;48.086;16.282;2022-10-22T13:14:27;5.20;;;4.70;;
12921;SDS011;6528;48.086;16.282;2022-10-22T13:17:05;4.87;;;3.97;;
12921;SDS011;6528;48.086;16.282;2022-10-22T13:19:39;4.53;;;4.13;;
12921;SDS011;6528;48.086;16.282;2022-10-22T13:24:57;4.33;;;3.87;;
12921;SDS011;6528;48.086;16.282;2022-10-22T13:27:29;4.50;;;4.20;;
12921;SDS011;6528;48.086;16.282;2022-10-22T13:29:58;4.13;;;3.83;;
12921;SDS011;6528;48.086;16.282;2022-10-22T13:32:29;4.83;;;4.43;;
12921;SDS011;6528;48.086;16.282;2022-10-22T13:34:58;4.53;;;4.23;;
12921;SDS011;6528;48.086;16.282;2022-10-22T13:37:27;4.60;;;4.30;;
12921;SDS011;6528;48.086;16.282;2022-10-22T13:39:56;5.00;;;4.60;;
12921;SDS011;6528;48.086;16.282;2022-10-22T13:42:23;3.80;;;3.60;;
12921;SDS011;6528;48.086;16.282;2022-10-22T13:44:50;4.03;;;3.70;;
12921;SDS011;6528;48.086;16.282;2022-10-22T13:47:24;4.30;;;3.90;;
12921;SDS011;6528;48.086;16.282;2022-10-22T13:49:53;4.77;;;4.37;;
12921;SDS011;6528;48.086;16.282;2022-10-22T13:52:28;4.03;;;3.73;;
12921;SDS011;6528;48.086;16.282;2022-10-22T13:55:01;4.10;;;3.80;;
12921;SDS011;6528;48.086;16.282;2022-10-22T13:57:38;3.97;;;3.67;;
12921;SDS011;6528;48.086;16.282;2022-10-22T14:00:05;4.53;;;4.13;;
12921;SDS011;6528;48.086;16.282;2022-10-22T14:02:32;5.10;;;4.50;;
12921;SDS011;6528;48.086;16.282;2022-10-22T14:04:59;4.20;;;3.80;;
12921;SDS011;6528;48.086;16.282;2022-10-22T14:07:28;4.40;;;4.10;;
12921;SDS011;6528;48.086;16.282;2022-10-22T14:09:55;4.50;;;4.10;;
12921;SDS011;6528;48.086;16.282;2022-10-22T14:12:21;5.63;;;4.73;;
12921;SDS011;6528;48.086;16.282;2022-10-22T14:14:50;4.40;;;3.87;;
12921;SDS011;6528;48.086;16.282;2022-10-22T14:17:16;8.30;;;4.10;;
12921;SDS011;6528;48.086;16.282;2022-10-22T14:19:45;4.30;;;3.90;;
12921;SDS011;6528;48.086;16.282;2022-10-22T14:22:15;4.10;;;3.80;;
12921;SDS011;6528;48.086;16.282;2022-10-22T14:24:44;4.70;;;4.20;;
12921;SDS011;6528;48.086;16.282;2022-10-22T14:27:12;4.40;;;4.00;;
12921;SDS011;6528;48.086;16.282;2022-10-22T14:29:40;4.20;;;3.90;;
12921;SDS011;6528;48.086;16.282;2022-10-22T14:32:16;3.90;;;3.60;;
12921;SDS011;6528;48.086;16.282;2022-10-22T14:34:46;4.53;;;4.13;;
12921;SDS011;6528;48.086;16.282;2022-10-22T14:37:14;4.83;;;4.40;;
12921;SDS011;6528;48.086;16.282;2022-10-22T14:39:43;4.50;;;4.10;;
12921;SDS011;6528;48.086;16.282;2022-10-22T14:42:17;5.27;;;4.23;;
12921;SDS011;6528;48.086;16.282;2022-10-22T14:44:45;6.13;;;3.90;;
12921;SDS011;6528;48.086;16.282;2022-10-22T14:47:12;4.13;;;3.80;;
12921;SDS011;6528;48.086;16.282;2022-10-22T14:49:38;5.07;;;4.33;;
12921;SDS011;6528;48.086;16.282;2022-10-22T14:52:05;3.90;;;3.60;;
12921;SDS011;6528;48.086;16.282;2022-10-22T14:58:14;4.60;;;4.20;;
12921;SDS011;6528;48.086;16.282;2022-10-22T15:00:41;3.93;;;3.60;;
12921;SDS011;6528;48.086;16.282;2022-10-22T15:03:08;4.50;;;4.10;;
12921;SDS011;6528;48.086;16.282;2022-10-22T15:05:39;4.60;;;4.20;;
12921;SDS011;6528;48.086;16.282;2022-10-22T15:08:10;4.77;;;4.43;;
12921;SDS011;6528;48.086;16.282;2022-10-22T15:10:38;3.83;;;3.53;;
12921;SDS011;6528;48.086;16.282;2022-10-22T15:13:05;4.23;;;3.83;;
12921;SDS011;6528;48.086;16.282;2022-10-22T15:15:32;4.30;;;3.90;;
12921;SDS011;6528;48.086;16.282;2022-10-22T15:18:05;3.67;;;3.37;;
12921;SDS011;6528;48.086;16.282;2022-10-22T15:20:31;4.07;;;3.70;;
12921;SDS011;6528;48.086;16.282;2022-10-22T15:22:58;4.33;;;3.90;;
12921;SDS011;6528;48.086;16.282;2022-10-22T15:25:25;7.13;;;4.50;;
12921;SDS011;6528;48.086;16.282;2022-10-22T15:27:52;4.30;;;4.00;;
12921;SDS011;6528;48.086;16.282;2022-10-22T15:30:27;4.37;;;3.87;;
12921;SDS011;6528;48.086;16.282;2022-10-22T15:32:53;4.47;;;4.07;;
12921;SDS011;6528;48.086;16.282;2022-10-22T15:35:20;4.30;;;3.90;;
12921;SDS011;6528;48.086;16.282;2022-10-22T15:37:49;4.27;;;3.63;;
12921;SDS011;6528;48.086;16.282;2022-10-22T15:40:16;4.37;;;4.07;;
12921;SDS011;6528;48.086;16.282;2022-10-22T15:42:43;4.17;;;3.77;;
12921;SDS011;6528;48.086;16.282;2022-10-22T15:45:11;7.90;;;3.97;;
12921;SDS011;6528;48.086;16.282;2022-10-22T15:47:38;3.83;;;3.53;;
12921;SDS011;6528;48.086;16.282;2022-10-22T15:50:05;3.47;;;3.17;;
12921;SDS011;6528;48.086;16.282;2022-10-22T15:52:32;5.10;;;4.17;;
12921;SDS011;6528;48.086;16.282;2022-10-22T15:54:59;4.83;;;4.10;;
12921;SDS011;6528;48.086;16.282;2022-10-22T15:57:29;5.27;;;4.00;;
12921;SDS011;6528;48.086;16.282;2022-10-22T15:59:56;3.60;;;3.30;;
12921;SDS011;6528;48.086;16.282;2022-10-22T16:02:22;4.53;;;4.13;;
12921;SDS011;6528;48.086;16.282;2022-10-22T16:04:49;4.80;;;4.03;;
12921;SDS011;6528;48.086;16.282;2022-10-22T16:07:16;4.20;;;3.83;;
12921;SDS011;6528;48.086;16.282;2022-10-22T16:09:49;5.57;;;4.40;;
12921;SDS011;6528;48.086;16.282;2022-10-22T16:12:15;4.67;;;3.70;;
12921;SDS011;6528;48.086;16.282;2022-10-22T16:14:42;5.03;;;4.40;;
12921;SDS011;6528;48.086;16.282;2022-10-22T16:17:09;4.50;;;3.40;;
12921;SDS011;6528;48.086;16.282;2022-10-22T16:19:36;4.97;;;4.47;;
12921;SDS011;6528;48.086;16.282;2022-10-22T16:22:03;4.87;;;4.50;;
12921;SDS011;6528;48.086;16.282;2022-10-22T16:24:29;5.00;;;4.47;;
12921;SDS011;6528;48.086;16.282;2022-10-22T16:26:56;5.27;;;4.83;;
12921;SDS011;6528;48.086;16.282;2022-10-22T16:29:23;6.07;;;4.73;;
12921;SDS011;6528;48.086;16.282;2022-10-22T16:31:50;4.57;;;4.27;;
12921;SDS011;6528;48.086;16.282;2022-10-22T16:34:16;4.87;;;4.40;;
12921;SDS011;6528;48.086;16.282;2022-10-22T16:36:43;5.70;;;4.77;;
12921;SDS011;6528;48.086;16.282;2022-10-22T16:39:10;5.10;;;4.70;;
12921;SDS011;6528;48.086;16.282;2022-10-22T16:41:37;4.83;;;4.37;;
12921;SDS011;6528;48.086;16.282;2022-10-22T16:44:05;5.23;;;4.20;;
12921;SDS011;6528;48.086;16.282;2022-10-22T16:46:34;5.23;;;4.23;;
12921;SDS011;6528;48.086;16.282;2022-10-22T16:49:04;4.40;;;4.00;;
12921;SDS011;6528;48.086;16.282;2022-10-22T16:51:31;4.70;;;4.33;;
12921;SDS011;6528;48.086;16.282;2022-10-22T16:53:58;4.77;;;4.37;;
12921;SDS011;6528;48.086;16.282;2022-10-22T16:56:25;4.50;;;4.10;;
12921;SDS011;6528;48.086;16.282;2022-10-22T16:58:53;6.83;;;4.93;;
12921;SDS011;6528;48.086;16.282;2022-10-22T17:01:22;5.73;;;4.50;;
12921;SDS011;6528;48.086;16.282;2022-10-22T17:03:51;5.00;;;3.90;;
12921;SDS011;6528;48.086;16.282;2022-10-22T17:06:20;4.30;;;3.90;;
12921;SDS011;6528;48.086;16.282;2022-10-22T17:08:48;6.00;;;4.10;;
12921;SDS011;6528;48.086;16.282;2022-10-22T17:11:17;4.27;;;3.87;;
12921;SDS011;6528;48.086;16.282;2022-10-22T17:13:46;3.93;;;3.53;;
12921;SDS011;6528;48.086;16.282;2022-10-22T17:16:15;4.40;;;4.00;;
12921;SDS011;6528;48.086;16.282;2022-10-22T17:18:43;4.00;;;3.60;;